sensor_id;sensor_type;location;lat;lon;timestamp;temperature;humidity
39899;DHT22;25571;47.876;10.642;2023-04-01T00:00:52;7.40;99.90
39899;DHT22;25571;47.876;10.642;2023-04-01T00:03:19;7.30;99.90
39899;DHT22;25571;47.876;10.642;2023-04-01T00:05:45;7.30;99.90
39899;DHT22;25571;47.876;10.642;2023-04-01T00:08:11;7.30;99.90
39899;DHT22;25571;47.876;10.642;2023-04-01T00:10:37;7.30;99.90
39899;DHT22;25571;47.876;10.642;2023-04-01T00:13:02;7.30;99.90
39899;DHT22;25571;47.876;10.642;2023-04-01T00:15:28;7.40;99.90
39899;DHT22;25571;47.876;10.642;2023-04-01T00:17:53;7.40;99.90
39899;DHT22;25571;47.876;10.642;2023-04-01T00:20:19;7.40;99.90
39899;DHT22;25571;47.876;10.642;2023-04-01T00:22:45;7.40;99.90
39899;DHT22;25571;47.876;10.642;2023-04-01T00:25:11;7.50;99.90
39899;DHT22;25571;47.876;10.642;2023-04-01T00:27:36;7.50;99.90
39899;DHT22;25571;47.876;10.642;2023-04-01T00:30:03;7.60;99.90
39899;DHT22;25571;47.876;10.642;2023-04-01T00:32:29;7.60;99.90
39899;DHT22;25571;47.876;10.642;2023-04-01T00:34:55;7.60;99.90
39899;DHT22;25571;47.876;10.642;2023-04-01T00:37:21;7.60;99.90
39899;DHT22;25571;47.876;10.642;2023-04-01T00:39:48;7.70;99.90
39899;DHT22;25571;47.876;10.642;2023-04-01T00:42:14;7.60;99.90
39899;DHT22;25571;47.876;10.642;2023-04-01T00:44:40;7.60;99.90
39899;DHT22;25571;47.876;10.642;2023-04-01T00:47:06;7.70;99.90
39899;DHT22;25571;47.876;10.642;2023-04-01T00:49:38;7.70;99.90
39899;DHT22;25571;47.876;10.642;2023-04-01T00:52:06;7.60;99.90
39899;DHT22;25571;47.876;10.642;2023-04-01T00:54:33;7.60;99.90
39899;DHT22;25571;47.876;10.642;2023-04-01T00:57:11;7.60;99.90
39899;DHT22;25571;47.876;10.642;2023-04-01T00:59:42;7.50;99.90
39899;DHT22;25571;47.876;10.642;2023-04-01T01:02:10;7.50;99.90
39899;DHT22;25571;47.876;10.642;2023-04-01T01:04:36;7.50;99.90
39899;DHT22;25571;47.876;10.642;2023-04-01T01:13:15;7.50;99.90
39899;DHT22;25571;47.876;10.642;2023-04-01T01:15:58;7.40;99.90
39899;DHT22;25571;47.876;10.642;2023-04-01T01:22:11;7.30;99.90
39899;DHT22;25571;47.876;10.642;2023-04-01T01:27:20;7.30;99.90
39899;DHT22;25571;47.876;10.642;2023-04-01T01:38:02;7.10;99.90
39899;DHT22;25571;47.876;10.642;2023-04-01T01:40:30;7.10;99.90
39899;DHT22;25571;47.876;10.642;2023-04-01T01:43:01;7.10;99.90
39899;DHT22;25571;47.876;10.642;2023-04-01T01:45:29;7.10;99.90
39899;DHT22;25571;47.876;10.642;2023-04-01T01:47:56;7.10;99.90
39899;DHT22;25571;47.876;10.642;2023-04-01T01:50:24;7.10;99.90
39899;DHT22;25571;47.876;10.642;2023-04-01T01:52:51;7.20;99.90
39899;DHT22;25571;47.876;10.642;2023-04-01T01:55:33;7.20;99.90
39899;DHT22;25571;47.876;10.642;2023-04-01T02:00:35;7.10;99.90
39899;DHT22;25571;47.876;10.642;2023-04-01T02:03:01;7.10;99.90
39899;DHT22;25571;47.876;10.642;2023-04-01T02:05:28;7.10;99.90
39899;DHT22;25571;47.876;10.642;2023-04-01T02:08:01;7.10;99.90
39899;DHT22;25571;47.876;10.642;2023-04-01T02:10:29;7.00;99.90
39899;DHT22;25571;47.876;10.642;2023-04-01T02:12:57;7.00;99.90
39899;DHT22;25571;47.876;10.642;2023-04-01T02:15:24;6.90;99.90
39899;DHT22;25571;47.876;10.642;2023-04-01T02:17:53;6.90;99.90
39899;DHT22;25571;47.876;10.642;2023-04-01T02:20:23;6.80;99.90
39899;DHT22;25571;47.876;10.642;2023-04-01T02:22:51;6.80;99.90
39899;DHT22;25571;47.876;10.642;2023-04-01T02:25:22;6.80;99.90
39899;DHT22;25571;47.876;10.642;2023-04-01T02:27:48;6.80;99.90
39899;DHT22;25571;47.876;10.642;2023-04-01T02:30:16;6.80;99.90
39899;DHT22;25571;47.876;10.642;2023-04-01T02:32:43;6.80;99.90
39899;DHT22;25571;47.876;10.642;2023-04-01T02:35:11;6.80;99.90
39899;DHT22;25571;47.876;10.642;2023-04-01T02:37:38;6.80;99.90
39899;DHT22;25571;47.876;10.642;2023-04-01T02:40:10;6.80;99.90
39899;DHT22;25571;47.876;10.642;2023-04-01T02:42:36;6.80;99.90
39899;DHT22;25571;47.876;10.642;2023-04-01T02:45:02;6.80;99.90
39899;DHT22;25571;47.876;10.642;2023-04-01T02:47:28;6.70;99.90
39899;DHT22;25571;47.876;10.642;2023-04-01T02:49:54;6.70;99.90
39899;DHT22;25571;47.876;10.642;2023-04-01T02:52:28;6.70;99.90
39899;DHT22;25571;47.876;10.642;2023-04-01T02:54:53;6.80;99.90
39899;DHT22;25571;47.876;10.642;2023-04-01T02:57:19;6.90;99.90
39899;DHT22;25571;47.876;10.642;2023-04-01T02:59:45;6.90;99.90
39899;DHT22;25571;47.876;10.642;2023-04-01T03:02:11;6.80;99.90
39899;DHT22;25571;47.876;10.642;2023-04-01T03:04:36;6.80;99.90
39899;DHT22;25571;47.876;10.642;2023-04-01T03:07:02;6.90;99.90
39899;DHT22;25571;47.876;10.642;2023-04-01T03:09:28;6.90;99.90
39899;DHT22;25571;47.876;10.642;2023-04-01T03:11:54;6.90;99.90
39899;DHT22;25571;47.876;10.642;2023-04-01T03:14:19;6.90;99.90
39899;DHT22;25571;47.876;10.642;2023-04-01T03:16:45;6.90;99.90
39899;DHT22;25571;47.876;10.642;2023-04-01T03:19:11;6.90;99.90
39899;DHT22;25571;47.876;10.642;2023-04-01T03:21:36;6.90;99.90
39899;DHT22;25571;47.876;10.642;2023-04-01T03:24:02;7.00;99.90
39899;DHT22;25571;47.876;10.642;2023-04-01T03:26:28;6.90;99.90
39899;DHT22;25571;47.876;10.642;2023-04-01T03:28:54;6.90;99.90
39899;DHT22;25571;47.876;10.642;2023-04-01T03:31:20;6.90;99.90
39899;DHT22;25571;47.876;10.642;2023-04-01T03:33:46;6.90;99.90
39899;DHT22;25571;47.876;10.642;2023-04-01T03:36:12;7.00;99.90
39899;DHT22;25571;47.876;10.642;2023-04-01T03:38:39;7.00;99.90
39899;DHT22;25571;47.876;10.642;2023-04-01T03:41:05;7.10;99.90
39899;DHT22;25571;47.876;10.642;2023-04-01T03:43:31;7.00;99.90
39899;DHT22;25571;47.876;10.642;2023-04-01T03:45:57;7.00;99.90
39899;DHT22;25571;47.876;10.642;2023-04-01T03:48:23;7.00;99.90
39899;DHT22;25571;47.876;10.642;2023-04-01T03:50:50;7.00;99.90
39899;DHT22;25571;47.876;10.642;2023-04-01T03:53:16;6.90;99.90
39899;DHT22;25571;47.876;10.642;2023-04-01T03:55:41;6.90;99.90
39899;DHT22;25571;47.876;10.642;2023-04-01T03:58:08;6.90;99.90
39899;DHT22;25571;47.876;10.642;2023-04-01T04:00:33;6.90;99.90
39899;DHT22;25571;47.876;10.642;2023-04-01T04:03:00;6.90;99.90
39899;DHT22;25571;47.876;10.642;2023-04-01T04:05:26;6.90;99.90
39899;DHT22;25571;47.876;10.642;2023-04-01T04:07:52;6.90;99.90
39899;DHT22;25571;47.876;10.642;2023-04-01T04:10:19;6.90;99.90
39899;DHT22;25571;47.876;10.642;2023-04-01T04:12:45;6.90;99.90
39899;DHT22;25571;47.876;10.642;2023-04-01T04:15:11;6.90;99.90
39899;DHT22;25571;47.876;10.642;2023-04-01T04:17:37;6.90;99.90
39899;DHT22;25571;47.876;10.642;2023-04-01T04:20:03;6.90;99.90
39899;DHT22;25571;47.876;10.642;2023-04-01T04:22:29;6.90;99.90
39899;DHT22;25571;47.876;10.642;2023-04-01T04:24:55;6.80;99.90
39899;DHT22;25571;47.876;10.642;2023-04-01T04:27:20;6.90;99.90
39899;DHT22;25571;47.876;10.642;2023-04-01T04:29:46;6.90;99.90
39899;DHT22;25571;47.876;10.642;2023-04-01T04:32:11;6.90;99.90
39899;DHT22;25571;47.876;10.642;2023-04-01T04:34:37;6.90;99.90
39899;DHT22;25571;47.876;10.642;2023-04-01T04:37:03;6.80;99.90
39899;DHT22;25571;47.876;10.642;2023-04-01T04:39:29;6.80;99.90
39899;DHT22;25571;47.876;10.642;2023-04-01T04:41:55;6.70;99.90
39899;DHT22;25571;47.876;10.642;2023-04-01T04:44:20;6.60;99.90
39899;DHT22;25571;47.876;10.642;2023-04-01T04:46:46;6.60;99.90
39899;DHT22;25571;47.876;10.642;2023-04-01T04:49:12;6.60;99.90
39899;DHT22;25571;47.876;10.642;2023-04-01T04:51:38;6.60;99.90
39899;DHT22;25571;47.876;10.642;2023-04-01T04:54:04;6.60;99.90
39899;DHT22;25571;47.876;10.642;2023-04-01T04:56:31;6.60;99.90
39899;DHT22;25571;47.876;10.642;2023-04-01T04:58:57;6.60;99.90
39899;DHT22;25571;47.876;10.642;2023-04-01T05:01:23;6.70;99.90
39899;DHT22;25571;47.876;10.642;2023-04-01T05:03:49;6.70;99.90
39899;DHT22;25571;47.876;10.642;2023-04-01T05:06:15;6.80;99.90
39899;DHT22;25571;47.876;10.642;2023-04-01T05:08:42;6.80;99.90
39899;DHT22;25571;47.876;10.642;2023-04-01T05:11:13;6.90;99.90
39899;DHT22;25571;47.876;10.642;2023-04-01T05:13:40;6.90;99.90
39899;DHT22;25571;47.876;10.642;2023-04-01T05:16:11;7.00;99.90
39899;DHT22;25571;47.876;10.642;2023-04-01T05:18:37;7.00;99.90
39899;DHT22;25571;47.876;10.642;2023-04-01T05:21:02;7.00;99.90
39899;DHT22;25571;47.876;10.642;2023-04-01T05:23:28;7.10;99.90
39899;DHT22;25571;47.876;10.642;2023-04-01T05:25:53;7.00;99.90
39899;DHT22;25571;47.876;10.642;2023-04-01T05:28:20;7.00;99.90
39899;DHT22;25571;47.876;10.642;2023-04-01T05:30:45;7.10;99.90
39899;DHT22;25571;47.876;10.642;2023-04-01T05:33:12;7.20;99.90
39899;DHT22;25571;47.876;10.642;2023-04-01T05:35:39;7.20;99.90
39899;DHT22;25571;47.876;10.642;2023-04-01T05:38:05;7.10;99.90
39899;DHT22;25571;47.876;10.642;2023-04-01T05:40:31;7.20;99.90
39899;DHT22;25571;47.876;10.642;2023-04-01T05:42:56;7.20;99.90
39899;DHT22;25571;47.876;10.642;2023-04-01T05:45:22;7.30;99.90
39899;DHT22;25571;47.876;10.642;2023-04-01T05:47:48;7.20;99.90
39899;DHT22;25571;47.876;10.642;2023-04-01T05:50:14;7.40;99.90
39899;DHT22;25571;47.876;10.642;2023-04-01T05:52:40;7.40;99.90
39899;DHT22;25571;47.876;10.642;2023-04-01T05:55:06;7.50;99.90
39899;DHT22;25571;47.876;10.642;2023-04-01T05:57:32;7.70;99.90
39899;DHT22;25571;47.876;10.642;2023-04-01T05:59:57;7.90;99.90
39899;DHT22;25571;47.876;10.642;2023-04-01T06:02:23;8.10;99.90
39899;DHT22;25571;47.876;10.642;2023-04-01T06:04:51;8.40;99.90
39899;DHT22;25571;47.876;10.642;2023-04-01T06:07:18;8.90;99.90
39899;DHT22;25571;47.876;10.642;2023-04-01T06:09:44;9.50;99.90
39899;DHT22;25571;47.876;10.642;2023-04-01T06:12:41;10.00;99.90
39899;DHT22;25571;47.876;10.642;2023-04-01T06:20:20;9.40;99.90
39899;DHT22;25571;47.876;10.642;2023-04-01T06:23:10;9.30;99.90
39899;DHT22;25571;47.876;10.642;2023-04-01T06:34:57;9.20;99.90
39899;DHT22;25571;47.876;10.642;2023-04-01T06:38:10;9.30;99.90
39899;DHT22;25571;47.876;10.642;2023-04-01T06:43:20;10.00;99.90
39899;DHT22;25571;47.876;10.642;2023-04-01T06:45:53;10.30;99.90
39899;DHT22;25571;47.876;10.642;2023-04-01T06:51:02;10.80;99.90
39899;DHT22;25571;47.876;10.642;2023-04-01T06:53:46;11.20;99.90
39899;DHT22;25571;47.876;10.642;2023-04-01T06:56:17;11.50;99.90
39899;DHT22;25571;47.876;10.642;2023-04-01T06:59:10;11.60;99.90
39899;DHT22;25571;47.876;10.642;2023-04-01T07:01:52;11.30;99.90
39899;DHT22;25571;47.876;10.642;2023-04-01T07:04:26;11.90;99.90
39899;DHT22;25571;47.876;10.642;2023-04-01T07:07:04;12.30;99.90
39899;DHT22;25571;47.876;10.642;2023-04-01T07:09:38;11.90;99.90
39899;DHT22;25571;47.876;10.642;2023-04-01T07:12:30;11.60;99.90
39899;DHT22;25571;47.876;10.642;2023-04-01T07:15:18;12.60;99.40
39899;DHT22;25571;47.876;10.642;2023-04-01T07:17:47;13.20;98.50
39899;DHT22;25571;47.876;10.642;2023-04-01T07:20:23;13.70;96.10
39899;DHT22;25571;47.876;10.642;2023-04-01T07:22:54;13.50;95.50
39899;DHT22;25571;47.876;10.642;2023-04-01T07:25:30;13.20;96.50
39899;DHT22;25571;47.876;10.642;2023-04-01T07:28:01;13.40;97.20
39899;DHT22;25571;47.876;10.642;2023-04-01T07:30:30;13.30;96.20
39899;DHT22;25571;47.876;10.642;2023-04-01T07:33:08;12.60;96.80
39899;DHT22;25571;47.876;10.642;2023-04-01T07:35:46;12.40;97.00
39899;DHT22;25571;47.876;10.642;2023-04-01T07:49:45;11.90;97.30
39899;DHT22;25571;47.876;10.642;2023-04-01T07:55:13;12.90;96.00
39899;DHT22;25571;47.876;10.642;2023-04-01T07:58:08;12.60;95.50
39899;DHT22;25571;47.876;10.642;2023-04-01T08:11:29;20.40;65.50
39899;DHT22;25571;47.876;10.642;2023-04-01T08:19:38;19.40;65.50
39899;DHT22;25571;47.876;10.642;2023-04-01T08:22:15;18.60;65.10
39899;DHT22;25571;47.876;10.642;2023-04-01T08:24:45;18.50;65.30
39899;DHT22;25571;47.876;10.642;2023-04-01T08:27:15;17.50;69.00
39899;DHT22;25571;47.876;10.642;2023-04-01T08:29:48;16.50;71.10
39899;DHT22;25571;47.876;10.642;2023-04-01T08:32:22;17.00;72.10
39899;DHT22;25571;47.876;10.642;2023-04-01T08:34:59;18.50;68.10
39899;DHT22;25571;47.876;10.642;2023-04-01T08:37:32;17.90;67.10
39899;DHT22;25571;47.876;10.642;2023-04-01T08:43:06;22.10;59.90
39899;DHT22;25571;47.876;10.642;2023-04-01T08:48:33;25.10;53.00
39899;DHT22;25571;47.876;10.642;2023-04-01T08:53:46;24.30;47.80
39899;DHT22;25571;47.876;10.642;2023-04-01T08:56:20;27.90;43.00
39899;DHT22;25571;47.876;10.642;2023-04-01T09:01:45;25.10;46.60
39899;DHT22;25571;47.876;10.642;2023-04-01T09:05:04;27.50;43.70
39899;DHT22;25571;47.876;10.642;2023-04-01T09:16:01;22.30;50.40
39899;DHT22;25571;47.876;10.642;2023-04-01T09:32:34;18.20;57.20
39899;DHT22;25571;47.876;10.642;2023-04-01T09:40:23;17.10;60.90
39899;DHT22;25571;47.876;10.642;2023-04-01T09:43:21;16.60;62.50
39899;DHT22;25571;47.876;10.642;2023-04-01T09:48:59;15.90;68.10
39899;DHT22;25571;47.876;10.642;2023-04-01T09:51:52;15.40;71.40
39899;DHT22;25571;47.876;10.642;2023-04-01T09:54:45;14.90;71.70
39899;DHT22;25571;47.876;10.642;2023-04-01T10:17:44;14.60;75.50
39899;DHT22;25571;47.876;10.642;2023-04-01T10:25:39;13.70;81.40
39899;DHT22;25571;47.876;10.642;2023-04-01T10:28:33;13.50;81.10
39899;DHT22;25571;47.876;10.642;2023-04-01T10:36:54;13.20;84.50
39899;DHT22;25571;47.876;10.642;2023-04-01T10:39:34;13.00;84.60
39899;DHT22;25571;47.876;10.642;2023-04-01T10:48:14;12.40;89.50
39899;DHT22;25571;47.876;10.642;2023-04-01T11:25:09;9.90;99.10
39899;DHT22;25571;47.876;10.642;2023-04-01T11:48:40;9.50;99.90
39899;DHT22;25571;47.876;10.642;2023-04-01T12:06:02;9.50;99.90
39899;DHT22;25571;47.876;10.642;2023-04-01T12:08:37;9.50;99.90
39899;DHT22;25571;47.876;10.642;2023-04-01T12:14:03;9.60;99.90
39899;DHT22;25571;47.876;10.642;2023-04-01T12:19:35;9.80;99.90
39899;DHT22;25571;47.876;10.642;2023-04-01T12:22:38;9.90;99.90
39899;DHT22;25571;47.876;10.642;2023-04-01T12:30:58;10.20;99.90
39899;DHT22;25571;47.876;10.642;2023-04-01T12:33:44;10.20;99.90
39899;DHT22;25571;47.876;10.642;2023-04-01T12:49:23;10.60;99.90
39899;DHT22;25571;47.876;10.642;2023-04-01T12:52:13;10.40;99.90
39899;DHT22;25571;47.876;10.642;2023-04-01T13:09:08;10.90;99.90
39899;DHT22;25571;47.876;10.642;2023-04-01T13:11:48;10.80;99.90
39899;DHT22;25571;47.876;10.642;2023-04-01T13:22:56;10.60;99.90
39899;DHT22;25571;47.876;10.642;2023-04-01T13:25:31;10.60;99.90
39899;DHT22;25571;47.876;10.642;2023-04-01T13:28:09;10.60;99.90
39899;DHT22;25571;47.876;10.642;2023-04-01T13:30:47;10.50;99.90
39899;DHT22;25571;47.876;10.642;2023-04-01T13:33:26;10.40;99.90
39899;DHT22;25571;47.876;10.642;2023-04-01T13:36:10;10.40;99.90
39899;DHT22;25571;47.876;10.642;2023-04-01T14:08:01;10.00;99.90
39899;DHT22;25571;47.876;10.642;2023-04-01T14:10:36;10.00;99.90
39899;DHT22;25571;47.876;10.642;2023-04-01T14:21:17;10.40;99.90
39899;DHT22;25571;47.876;10.642;2023-04-01T14:24:01;10.40;99.90
39899;DHT22;25571;47.876;10.642;2023-04-01T14:37:20;10.80;99.90
39899;DHT22;25571;47.876;10.642;2023-04-01T14:42:55;10.70;99.90
39899;DHT22;25571;47.876;10.642;2023-04-01T14:48:17;10.70;99.90
39899;DHT22;25571;47.876;10.642;2023-04-01T14:50:46;10.70;99.90
39899;DHT22;25571;47.876;10.642;2023-04-01T14:53:35;10.70;99.90
39899;DHT22;25571;47.876;10.642;2023-04-01T14:56:04;10.70;99.90
39899;DHT22;25571;47.876;10.642;2023-04-01T14:58:47;10.80;99.90
39899;DHT22;25571;47.876;10.642;2023-04-01T15:04:15;10.70;99.90
39899;DHT22;25571;47.876;10.642;2023-04-01T15:07:06;10.70;99.90
39899;DHT22;25571;47.876;10.642;2023-04-01T15:13:12;10.70;99.90
39899;DHT22;25571;47.876;10.642;2023-04-01T15:15:35;10.60;99.90
39899;DHT22;25571;47.876;10.642;2023-04-01T15:32:19;10.50;99.90
39899;DHT22;25571;47.876;10.642;2023-04-01T15:43:36;10.10;99.90
39899;DHT22;25571;47.876;10.642;2023-04-01T15:46:43;9.90;99.90
39899;DHT22;25571;47.876;10.642;2023-04-01T15:49:41;9.90;99.90
39899;DHT22;25571;47.876;10.642;2023-04-01T15:52:16;9.80;99.90
39899;DHT22;25571;47.876;10.642;2023-04-01T15:57:38;9.70;99.90
39899;DHT22;25571;47.876;10.642;2023-04-01T16:00:28;9.90;99.90
39899;DHT22;25571;47.876;10.642;2023-04-01T16:19:28;9.80;99.90
39899;DHT22;25571;47.876;10.642;2023-04-01T16:22:23;9.90;99.90
39899;DHT22;25571;47.876;10.642;2023-04-01T16:28:03;9.90;99.90
39899;DHT22;25571;47.876;10.642;2023-04-01T16:31:06;9.80;99.90
39899;DHT22;25571;47.876;10.642;2023-04-01T16:33:55;9.90;99.90
39899;DHT22;25571;47.876;10.642;2023-04-01T16:39:22;9.90;99.90
39899;DHT22;25571;47.876;10.642;2023-04-01T16:44:49;9.80;99.90
39899;DHT22;25571;47.876;10.642;2023-04-01T16:47:19;9.80;99.90
39899;DHT22;25571;47.876;10.642;2023-04-01T16:49:47;9.70;99.90
39899;DHT22;25571;47.876;10.642;2023-04-01T16:52:31;9.60;99.90
39899;DHT22;25571;47.876;10.642;2023-04-01T16:55:08;9.60;99.90
39899;DHT22;25571;47.876;10.642;2023-04-01T16:57:51;9.60;99.90
39899;DHT22;25571;47.876;10.642;2023-04-01T17:00:28;9.40;99.90
39899;DHT22;25571;47.876;10.642;2023-04-01T17:02:58;9.50;99.90
39899;DHT22;25571;47.876;10.642;2023-04-01T17:11:56;9.20;99.90
39899;DHT22;25571;47.876;10.642;2023-04-01T17:17:23;9.20;99.90
39899;DHT22;25571;47.876;10.642;2023-04-01T17:20:02;9.10;99.90
39899;DHT22;25571;47.876;10.642;2023-04-01T17:25:35;9.20;99.90
39899;DHT22;25571;47.876;10.642;2023-04-01T17:29:09;9.10;99.90
39899;DHT22;25571;47.876;10.642;2023-04-01T17:31:26;8.90;99.90
39899;DHT22;25571;47.876;10.642;2023-04-01T17:36:45;8.70;99.90
39899;DHT22;25571;47.876;10.642;2023-04-01T17:42:11;8.60;99.90
39899;DHT22;25571;47.876;10.642;2023-04-01T17:45:02;8.60;99.90
39899;DHT22;25571;47.876;10.642;2023-04-01T17:50:23;8.50;99.90
39899;DHT22;25571;47.876;10.642;2023-04-01T17:55:49;8.30;99.90
39899;DHT22;25571;47.876;10.642;2023-04-01T17:58:19;8.30;99.90
39899;DHT22;25571;47.876;10.642;2023-04-01T18:00:57;8.20;99.90
39899;DHT22;25571;47.876;10.642;2023-04-01T18:17:16;8.00;99.90
39899;DHT22;25571;47.876;10.642;2023-04-01T18:22:53;7.90;99.90
39899;DHT22;25571;47.876;10.642;2023-04-01T18:25:31;7.90;99.90
39899;DHT22;25571;47.876;10.642;2023-04-01T18:28:38;7.90;99.90
39899;DHT22;25571;47.876;10.642;2023-04-01T18:36:25;7.70;99.90
39899;DHT22;25571;47.876;10.642;2023-04-01T18:39:03;7.70;99.90
39899;DHT22;25571;47.876;10.642;2023-04-01T18:44:47;7.60;99.90
39899;DHT22;25571;47.876;10.642;2023-04-01T18:50:22;7.50;99.90
39899;DHT22;25571;47.876;10.642;2023-04-01T18:52:58;7.50;99.90
39899;DHT22;25571;47.876;10.642;2023-04-01T18:55:37;7.40;99.90
39899;DHT22;25571;47.876;10.642;2023-04-01T19:00:55;7.40;99.90
39899;DHT22;25571;47.876;10.642;2023-04-01T19:03:31;7.30;99.90
39899;DHT22;25571;47.876;10.642;2023-04-01T19:06:02;7.30;99.90
39899;DHT22;25571;47.876;10.642;2023-04-01T19:08:35;7.20;99.90
39899;DHT22;25571;47.876;10.642;2023-04-01T19:14:22;7.30;99.90
39899;DHT22;25571;47.876;10.642;2023-04-01T19:27:41;7.20;99.90
39899;DHT22;25571;47.876;10.642;2023-04-01T19:30:17;7.20;99.90
39899;DHT22;25571;47.876;10.642;2023-04-01T19:36:43;7.20;99.90
39899;DHT22;25571;47.876;10.642;2023-04-01T19:42:01;7.20;99.90
39899;DHT22;25571;47.876;10.642;2023-04-01T19:52:47;7.10;99.90
39899;DHT22;25571;47.876;10.642;2023-04-01T20:04:04;7.10;99.90
39899;DHT22;25571;47.876;10.642;2023-04-01T20:15:30;7.10;99.90
39899;DHT22;25571;47.876;10.642;2023-04-01T20:17:59;7.10;99.90
39899;DHT22;25571;47.876;10.642;2023-04-01T20:20:28;7.10;99.90
39899;DHT22;25571;47.876;10.642;2023-04-01T20:23:03;7.10;99.90
39899;DHT22;25571;47.876;10.642;2023-04-01T20:25:57;7.10;99.90
39899;DHT22;25571;47.876;10.642;2023-04-01T20:31:42;7.10;99.90
39899;DHT22;25571;47.876;10.642;2023-04-01T20:47:54;6.90;99.90
39899;DHT22;25571;47.876;10.642;2023-04-01T20:50:29;6.90;99.90
39899;DHT22;25571;47.876;10.642;2023-04-01T20:53:28;6.90;99.90
39899;DHT22;25571;47.876;10.642;2023-04-01T20:56:09;6.90;99.90
39899;DHT22;25571;47.876;10.642;2023-04-01T21:06:44;6.80;99.90
39899;DHT22;25571;47.876;10.642;2023-04-01T21:10:04;6.70;99.90
39899;DHT22;25571;47.876;10.642;2023-04-01T21:15:42;6.70;99.90
39899;DHT22;25571;47.876;10.642;2023-04-01T21:26:26;6.70;99.90
39899;DHT22;25571;47.876;10.642;2023-04-01T21:29:18;6.70;99.90
39899;DHT22;25571;47.876;10.642;2023-04-01T21:34:52;6.70;99.90
39899;DHT22;25571;47.876;10.642;2023-04-01T22:05:49;6.70;99.90
39899;DHT22;25571;47.876;10.642;2023-04-01T22:19:12;6.70;99.90
39899;DHT22;25571;47.876;10.642;2023-04-01T22:24:16;6.70;99.90
39899;DHT22;25571;47.876;10.642;2023-04-01T22:27:00;6.80;99.90
39899;DHT22;25571;47.876;10.642;2023-04-01T22:32:07;6.70;99.90
39899;DHT22;25571;47.876;10.642;2023-04-01T22:37:44;6.70;99.90
39899;DHT22;25571;47.876;10.642;2023-04-01T22:43:03;6.70;99.90
39899;DHT22;25571;47.876;10.642;2023-04-01T22:48:17;6.70;99.90
39899;DHT22;25571;47.876;10.642;2023-04-01T22:51:24;6.60;99.90
39899;DHT22;25571;47.876;10.642;2023-04-01T22:54:06;6.70;99.90
39899;DHT22;25571;47.876;10.642;2023-04-01T22:56:40;6.80;99.90
39899;DHT22;25571;47.876;10.642;2023-04-01T22:59:15;6.70;99.90
39899;DHT22;25571;47.876;10.642;2023-04-01T23:01:53;6.70;99.90
39899;DHT22;25571;47.876;10.642;2023-04-01T23:04:24;6.60;99.90
39899;DHT22;25571;47.876;10.642;2023-04-01T23:06:57;6.60;99.90
39899;DHT22;25571;47.876;10.642;2023-04-01T23:09:27;6.60;99.90
39899;DHT22;25571;47.876;10.642;2023-04-01T23:15:00;6.60;99.90
39899;DHT22;25571;47.876;10.642;2023-04-01T23:17:42;6.50;99.90
39899;DHT22;25571;47.876;10.642;2023-04-01T23:20:45;6.70;99.90
39899;DHT22;25571;47.876;10.642;2023-04-01T23:28:48;6.50;99.90
39899;DHT22;25571;47.876;10.642;2023-04-01T23:31:36;6.50;99.90
39899;DHT22;25571;47.876;10.642;2023-04-01T23:36:30;6.50;99.90
39899;DHT22;25571;47.876;10.642;2023-04-01T23:39:03;6.50;99.90
39899;DHT22;25571;47.876;10.642;2023-04-01T23:41:30;6.50;99.90
39899;DHT22;25571;47.876;10.642;2023-04-01T23:44:07;6.50;99.90
39899;DHT22;25571;47.876;10.642;2023-04-01T23:46:35;6.50;99.90
39899;DHT22;25571;47.876;10.642;2023-04-01T23:49:02;6.50;99.90
39899;DHT22;25571;47.876;10.642;2023-04-01T23:51:37;6.50;99.90
39899;DHT22;25571;47.876;10.642;2023-04-01T23:54:15;6.50;99.90
39899;DHT22;25571;47.876;10.642;2023-04-01T23:56:46;6.50;99.90
39899;DHT22;25571;47.876;10.642;2023-04-01T23:59:24;6.50;99.90
